sensor_id;sensor_type;location;lat;lon;timestamp;temperature;humidity
21387;DHT22;10854;45.922;6.716;2023-01-15T00:01:59;8.40;78.30
21387;DHT22;10854;45.922;6.716;2023-01-15T00:04:28;8.40;77.80
21387;DHT22;10854;45.922;6.716;2023-01-15T00:06:56;8.50;76.90
21387;DHT22;10854;45.922;6.716;2023-01-15T00:09:24;8.60;77.30
21387;DHT22;10854;45.922;6.716;2023-01-15T00:11:54;8.60;77.70
21387;DHT22;10854;45.922;6.716;2023-01-15T00:14:22;8.50;77.80
21387;DHT22;10854;45.922;6.716;2023-01-15T00:16:51;8.50;78.30
21387;DHT22;10854;45.922;6.716;2023-01-15T00:19:20;8.50;78.90
21387;DHT22;10854;45.922;6.716;2023-01-15T00:21:48;8.40;79.30
21387;DHT22;10854;45.922;6.716;2023-01-15T00:24:17;8.40;79.70
21387;DHT22;10854;45.922;6.716;2023-01-15T00:27:03;8.30;79.90
21387;DHT22;10854;45.922;6.716;2023-01-15T00:29:50;8.30;80.40
21387;DHT22;10854;45.922;6.716;2023-01-15T00:32:19;8.30;80.80
21387;DHT22;10854;45.922;6.716;2023-01-15T00:34:47;8.30;81.20
21387;DHT22;10854;45.922;6.716;2023-01-15T00:37:15;8.20;81.60
21387;DHT22;10854;45.922;6.716;2023-01-15T00:39:44;8.20;82.20
21387;DHT22;10854;45.922;6.716;2023-01-15T00:42:12;8.20;83.00
21387;DHT22;10854;45.922;6.716;2023-01-15T00:44:41;8.10;83.70
21387;DHT22;10854;45.922;6.716;2023-01-15T00:47:10;8.10;84.20
21387;DHT22;10854;45.922;6.716;2023-01-15T00:49:42;8.10;84.50
21387;DHT22;10854;45.922;6.716;2023-01-15T00:52:11;8.10;83.20
21387;DHT22;10854;45.922;6.716;2023-01-15T00:54:39;8.10;83.90
21387;DHT22;10854;45.922;6.716;2023-01-15T00:57:08;8.10;83.90
21387;DHT22;10854;45.922;6.716;2023-01-15T00:59:38;8.20;84.80
21387;DHT22;10854;45.922;6.716;2023-01-15T01:02:06;8.20;84.10
21387;DHT22;10854;45.922;6.716;2023-01-15T01:04:35;8.30;84.30
21387;DHT22;10854;45.922;6.716;2023-01-15T01:07:04;8.40;84.20
21387;DHT22;10854;45.922;6.716;2023-01-15T01:09:33;8.60;84.80
21387;DHT22;10854;45.922;6.716;2023-01-15T01:12:05;8.90;84.90
21387;DHT22;10854;45.922;6.716;2023-01-15T01:14:33;9.10;84.90
21387;DHT22;10854;45.922;6.716;2023-01-15T01:17:03;9.20;85.00
21387;DHT22;10854;45.922;6.716;2023-01-15T01:19:31;9.20;85.30
21387;DHT22;10854;45.922;6.716;2023-01-15T01:22:00;9.10;85.80
21387;DHT22;10854;45.922;6.716;2023-01-15T01:24:30;9.00;86.20
21387;DHT22;10854;45.922;6.716;2023-01-15T01:26:59;8.80;87.20
21387;DHT22;10854;45.922;6.716;2023-01-15T01:29:28;8.60;88.10
21387;DHT22;10854;45.922;6.716;2023-01-15T01:31:56;8.50;89.00
21387;DHT22;10854;45.922;6.716;2023-01-15T01:34:25;8.30;89.90
21387;DHT22;10854;45.922;6.716;2023-01-15T01:36:54;8.10;90.60
21387;DHT22;10854;45.922;6.716;2023-01-15T01:39:22;8.00;91.70
21387;DHT22;10854;45.922;6.716;2023-01-15T01:41:51;7.70;92.90
21387;DHT22;10854;45.922;6.716;2023-01-15T01:47:07;7.50;96.00
21387;DHT22;10854;45.922;6.716;2023-01-15T01:49:38;7.40;97.50
21387;DHT22;10854;45.922;6.716;2023-01-15T01:52:10;7.30;99.00
21387;DHT22;10854;45.922;6.716;2023-01-15T01:54:45;7.20;99.90
21387;DHT22;10854;45.922;6.716;2023-01-15T01:57:15;7.20;99.90
21387;DHT22;10854;45.922;6.716;2023-01-15T01:59:47;7.10;99.90
21387;DHT22;10854;45.922;6.716;2023-01-15T02:02:19;7.10;99.90
21387;DHT22;10854;45.922;6.716;2023-01-15T02:04:50;7.00;99.90
21387;DHT22;10854;45.922;6.716;2023-01-15T02:07:19;7.00;99.90
21387;DHT22;10854;45.922;6.716;2023-01-15T02:09:47;7.00;99.90
21387;DHT22;10854;45.922;6.716;2023-01-15T02:12:41;6.90;99.90
21387;DHT22;10854;45.922;6.716;2023-01-15T02:15:23;6.90;99.90
21387;DHT22;10854;45.922;6.716;2023-01-15T02:20:38;6.90;99.90
21387;DHT22;10854;45.922;6.716;2023-01-15T02:29:57;6.90;99.90
21387;DHT22;10854;45.922;6.716;2023-01-15T02:32:28;6.90;99.90
21387;DHT22;10854;45.922;6.716;2023-01-15T02:35:04;6.80;99.90
21387;DHT22;10854;45.922;6.716;2023-01-15T02:37:38;6.80;99.90
21387;DHT22;10854;45.922;6.716;2023-01-15T02:40:09;6.80;99.90
21387;DHT22;10854;45.922;6.716;2023-01-15T02:42:40;6.80;99.90
21387;DHT22;10854;45.922;6.716;2023-01-15T02:45:11;6.70;99.90
21387;DHT22;10854;45.922;6.716;2023-01-15T02:47:42;6.70;99.90
21387;DHT22;10854;45.922;6.716;2023-01-15T02:50:14;6.70;99.90
21387;DHT22;10854;45.922;6.716;2023-01-15T02:52:46;6.70;99.90
21387;DHT22;10854;45.922;6.716;2023-01-15T02:55:20;6.70;99.90
21387;DHT22;10854;45.922;6.716;2023-01-15T02:57:52;6.60;99.90
21387;DHT22;10854;45.922;6.716;2023-01-15T03:00:23;6.60;99.90
21387;DHT22;10854;45.922;6.716;2023-01-15T03:03:00;6.60;99.90
21387;DHT22;10854;45.922;6.716;2023-01-15T03:05:39;6.60;99.90
21387;DHT22;10854;45.922;6.716;2023-01-15T03:08:10;6.50;99.90
21387;DHT22;10854;45.922;6.716;2023-01-15T03:10:55;6.60;99.90
21387;DHT22;10854;45.922;6.716;2023-01-15T03:16:13;6.60;99.90
21387;DHT22;10854;45.922;6.716;2023-01-15T03:19:26;6.60;99.90
21387;DHT22;10854;45.922;6.716;2023-01-15T03:24:42;6.60;99.90
21387;DHT22;10854;45.922;6.716;2023-01-15T03:27:12;6.60;99.90
21387;DHT22;10854;45.922;6.716;2023-01-15T03:29:46;6.60;99.90
21387;DHT22;10854;45.922;6.716;2023-01-15T03:32:16;6.60;99.90
21387;DHT22;10854;45.922;6.716;2023-01-15T03:34:51;6.60;99.90
21387;DHT22;10854;45.922;6.716;2023-01-15T03:37:21;6.60;99.90
21387;DHT22;10854;45.922;6.716;2023-01-15T03:39:51;6.60;99.90
21387;DHT22;10854;45.922;6.716;2023-01-15T03:42:34;6.60;99.90
21387;DHT22;10854;45.922;6.716;2023-01-15T03:45:25;6.60;99.90
21387;DHT22;10854;45.922;6.716;2023-01-15T03:53:54;6.60;99.90
21387;DHT22;10854;45.922;6.716;2023-01-15T03:56:28;6.60;99.90
21387;DHT22;10854;45.922;6.716;2023-01-15T03:59:12;6.60;99.90
21387;DHT22;10854;45.922;6.716;2023-01-15T04:01:44;6.60;99.90
21387;DHT22;10854;45.922;6.716;2023-01-15T04:04:15;6.60;99.90
21387;DHT22;10854;45.922;6.716;2023-01-15T04:06:44;6.60;99.90
21387;DHT22;10854;45.922;6.716;2023-01-15T04:09:14;6.60;99.90
21387;DHT22;10854;45.922;6.716;2023-01-15T04:11:42;6.60;99.90
21387;DHT22;10854;45.922;6.716;2023-01-15T04:14:13;6.60;99.90
21387;DHT22;10854;45.922;6.716;2023-01-15T04:16:41;6.60;99.90
21387;DHT22;10854;45.922;6.716;2023-01-15T04:19:11;6.60;99.90
21387;DHT22;10854;45.922;6.716;2023-01-15T04:21:40;6.50;99.90
21387;DHT22;10854;45.922;6.716;2023-01-15T04:24:09;6.50;99.90
21387;DHT22;10854;45.922;6.716;2023-01-15T04:26:37;6.50;99.90
21387;DHT22;10854;45.922;6.716;2023-01-15T04:29:06;6.50;99.90
21387;DHT22;10854;45.922;6.716;2023-01-15T04:31:34;6.50;99.90
21387;DHT22;10854;45.922;6.716;2023-01-15T04:34:03;6.50;99.90
21387;DHT22;10854;45.922;6.716;2023-01-15T04:36:32;6.60;99.90
21387;DHT22;10854;45.922;6.716;2023-01-15T04:39:04;6.60;99.90
21387;DHT22;10854;45.922;6.716;2023-01-15T04:41:32;6.60;99.90
21387;DHT22;10854;45.922;6.716;2023-01-15T04:44:19;6.60;99.90
21387;DHT22;10854;45.922;6.716;2023-01-15T04:46:48;6.60;99.90
21387;DHT22;10854;45.922;6.716;2023-01-15T04:49:18;6.60;99.90
21387;DHT22;10854;45.922;6.716;2023-01-15T04:51:46;6.60;99.90
21387;DHT22;10854;45.922;6.716;2023-01-15T04:54:16;6.60;99.90
21387;DHT22;10854;45.922;6.716;2023-01-15T04:56:47;6.50;99.90
21387;DHT22;10854;45.922;6.716;2023-01-15T04:59:19;6.50;99.90
21387;DHT22;10854;45.922;6.716;2023-01-15T05:01:48;6.50;99.90
21387;DHT22;10854;45.922;6.716;2023-01-15T05:04:30;6.50;99.90
21387;DHT22;10854;45.922;6.716;2023-01-15T05:07:00;6.50;99.90
21387;DHT22;10854;45.922;6.716;2023-01-15T05:09:29;6.60;99.90
21387;DHT22;10854;45.922;6.716;2023-01-15T05:11:57;6.60;99.90
21387;DHT22;10854;45.922;6.716;2023-01-15T05:14:26;6.50;99.90
21387;DHT22;10854;45.922;6.716;2023-01-15T05:16:54;6.60;99.90
21387;DHT22;10854;45.922;6.716;2023-01-15T05:19:23;6.60;99.90
21387;DHT22;10854;45.922;6.716;2023-01-15T05:21:51;6.60;99.90
21387;DHT22;10854;45.922;6.716;2023-01-15T05:24:20;6.60;99.90
21387;DHT22;10854;45.922;6.716;2023-01-15T05:26:48;6.60;99.90
21387;DHT22;10854;45.922;6.716;2023-01-15T05:29:16;6.60;99.90
21387;DHT22;10854;45.922;6.716;2023-01-15T05:31:45;6.60;99.90
21387;DHT22;10854;45.922;6.716;2023-01-15T05:34:13;6.60;99.90
21387;DHT22;10854;45.922;6.716;2023-01-15T05:36:42;6.50;99.90
21387;DHT22;10854;45.922;6.716;2023-01-15T05:39:10;6.50;99.90
21387;DHT22;10854;45.922;6.716;2023-01-15T05:41:39;6.50;99.90
21387;DHT22;10854;45.922;6.716;2023-01-15T05:44:28;6.50;99.90
21387;DHT22;10854;45.922;6.716;2023-01-15T05:46:59;6.50;99.90
21387;DHT22;10854;45.922;6.716;2023-01-15T05:49:36;6.60;99.90
21387;DHT22;10854;45.922;6.716;2023-01-15T05:52:06;6.60;99.90
21387;DHT22;10854;45.922;6.716;2023-01-15T05:54:35;6.70;99.90
21387;DHT22;10854;45.922;6.716;2023-01-15T05:57:04;6.60;99.90
21387;DHT22;10854;45.922;6.716;2023-01-15T05:59:32;6.70;99.90
21387;DHT22;10854;45.922;6.716;2023-01-15T06:02:01;6.60;99.90
21387;DHT22;10854;45.922;6.716;2023-01-15T06:04:31;6.60;99.90
21387;DHT22;10854;45.922;6.716;2023-01-15T06:06:59;6.60;99.90
21387;DHT22;10854;45.922;6.716;2023-01-15T06:09:27;6.60;99.90
21387;DHT22;10854;45.922;6.716;2023-01-15T06:11:57;6.60;99.90
21387;DHT22;10854;45.922;6.716;2023-01-15T06:14:25;6.60;99.90
21387;DHT22;10854;45.922;6.716;2023-01-15T06:16:54;6.60;99.90
21387;DHT22;10854;45.922;6.716;2023-01-15T06:19:23;6.60;99.90
21387;DHT22;10854;45.922;6.716;2023-01-15T06:21:51;6.60;99.90
21387;DHT22;10854;45.922;6.716;2023-01-15T06:24:19;6.50;99.90
21387;DHT22;10854;45.922;6.716;2023-01-15T06:26:48;6.50;99.90
21387;DHT22;10854;45.922;6.716;2023-01-15T06:29:16;6.50;99.90
21387;DHT22;10854;45.922;6.716;2023-01-15T06:31:47;6.50;99.90
21387;DHT22;10854;45.922;6.716;2023-01-15T06:34:16;6.50;99.90
21387;DHT22;10854;45.922;6.716;2023-01-15T06:36:44;6.50;99.90
21387;DHT22;10854;45.922;6.716;2023-01-15T06:39:13;6.50;99.90
21387;DHT22;10854;45.922;6.716;2023-01-15T06:41:41;6.50;99.90
21387;DHT22;10854;45.922;6.716;2023-01-15T06:44:48;6.60;99.90
21387;DHT22;10854;45.922;6.716;2023-01-15T06:47:35;6.60;99.90
21387;DHT22;10854;45.922;6.716;2023-01-15T06:50:05;6.60;99.90
21387;DHT22;10854;45.922;6.716;2023-01-15T06:52:33;6.60;99.90
21387;DHT22;10854;45.922;6.716;2023-01-15T06:55:01;6.60;99.90
21387;DHT22;10854;45.922;6.716;2023-01-15T06:57:30;6.60;99.90
21387;DHT22;10854;45.922;6.716;2023-01-15T06:59:58;6.50;99.90
21387;DHT22;10854;45.922;6.716;2023-01-15T07:02:27;6.50;99.90
21387;DHT22;10854;45.922;6.716;2023-01-15T07:04:55;6.50;99.90
21387;DHT22;10854;45.922;6.716;2023-01-15T07:07:24;6.50;99.90
21387;DHT22;10854;45.922;6.716;2023-01-15T07:09:52;6.50;99.90
21387;DHT22;10854;45.922;6.716;2023-01-15T07:12:21;6.60;99.90
21387;DHT22;10854;45.922;6.716;2023-01-15T07:14:50;6.50;99.90
21387;DHT22;10854;45.922;6.716;2023-01-15T07:17:19;6.60;99.90
21387;DHT22;10854;45.922;6.716;2023-01-15T07:19:47;6.60;99.90
21387;DHT22;10854;45.922;6.716;2023-01-15T07:22:16;6.60;99.90
21387;DHT22;10854;45.922;6.716;2023-01-15T07:24:45;6.60;99.90
21387;DHT22;10854;45.922;6.716;2023-01-15T07:27:13;6.60;99.90
21387;DHT22;10854;45.922;6.716;2023-01-15T07:29:42;6.70;99.90
21387;DHT22;10854;45.922;6.716;2023-01-15T07:32:10;6.70;99.90
21387;DHT22;10854;45.922;6.716;2023-01-15T07:34:39;6.70;99.90
21387;DHT22;10854;45.922;6.716;2023-01-15T07:37:07;6.70;99.90
21387;DHT22;10854;45.922;6.716;2023-01-15T07:39:37;6.70;99.90
21387;DHT22;10854;45.922;6.716;2023-01-15T07:42:08;6.70;99.90
21387;DHT22;10854;45.922;6.716;2023-01-15T07:44:55;6.80;99.90
21387;DHT22;10854;45.922;6.716;2023-01-15T07:47:42;6.80;99.90
21387;DHT22;10854;45.922;6.716;2023-01-15T07:50:29;6.90;99.90
21387;DHT22;10854;45.922;6.716;2023-01-15T07:52:57;6.90;99.90
21387;DHT22;10854;45.922;6.716;2023-01-15T07:55:26;6.90;99.90
21387;DHT22;10854;45.922;6.716;2023-01-15T07:57:55;7.00;99.90
21387;DHT22;10854;45.922;6.716;2023-01-15T08:00:24;7.00;99.90
21387;DHT22;10854;45.922;6.716;2023-01-15T08:02:52;7.00;99.90
21387;DHT22;10854;45.922;6.716;2023-01-15T08:05:21;7.00;99.90
21387;DHT22;10854;45.922;6.716;2023-01-15T08:07:49;7.00;99.90
21387;DHT22;10854;45.922;6.716;2023-01-15T08:10:18;7.00;99.90
21387;DHT22;10854;45.922;6.716;2023-01-15T08:12:49;7.00;99.90
21387;DHT22;10854;45.922;6.716;2023-01-15T08:15:40;7.10;99.90
21387;DHT22;10854;45.922;6.716;2023-01-15T08:18:10;7.10;99.90
21387;DHT22;10854;45.922;6.716;2023-01-15T08:20:39;7.10;99.90
21387;DHT22;10854;45.922;6.716;2023-01-15T08:23:07;7.20;99.90
21387;DHT22;10854;45.922;6.716;2023-01-15T08:25:37;7.20;99.90
21387;DHT22;10854;45.922;6.716;2023-01-15T08:28:06;7.20;99.90
21387;DHT22;10854;45.922;6.716;2023-01-15T08:30:34;7.20;99.90
21387;DHT22;10854;45.922;6.716;2023-01-15T08:33:03;7.20;99.90
21387;DHT22;10854;45.922;6.716;2023-01-15T08:35:32;7.30;99.90
21387;DHT22;10854;45.922;6.716;2023-01-15T08:38:07;7.30;99.90
21387;DHT22;10854;45.922;6.716;2023-01-15T08:40:36;7.30;99.90
21387;DHT22;10854;45.922;6.716;2023-01-15T08:43:29;7.30;99.90
21387;DHT22;10854;45.922;6.716;2023-01-15T08:45:59;7.30;99.90
21387;DHT22;10854;45.922;6.716;2023-01-15T08:48:30;7.30;99.90
21387;DHT22;10854;45.922;6.716;2023-01-15T08:51:02;7.30;99.90
21387;DHT22;10854;45.922;6.716;2023-01-15T08:53:30;7.30;99.90
21387;DHT22;10854;45.922;6.716;2023-01-15T08:55:59;7.40;99.90
21387;DHT22;10854;45.922;6.716;2023-01-15T08:58:29;7.40;99.90
21387;DHT22;10854;45.922;6.716;2023-01-15T09:01:08;7.40;99.90
21387;DHT22;10854;45.922;6.716;2023-01-15T09:03:37;7.40;99.90
21387;DHT22;10854;45.922;6.716;2023-01-15T09:06:07;7.40;99.90
21387;DHT22;10854;45.922;6.716;2023-01-15T09:08:38;7.40;99.90
21387;DHT22;10854;45.922;6.716;2023-01-15T09:11:07;7.40;99.90
21387;DHT22;10854;45.922;6.716;2023-01-15T09:13:39;7.40;99.90
21387;DHT22;10854;45.922;6.716;2023-01-15T09:16:11;7.40;99.90
21387;DHT22;10854;45.922;6.716;2023-01-15T09:18:39;7.50;99.90
21387;DHT22;10854;45.922;6.716;2023-01-15T09:21:08;7.40;99.90
21387;DHT22;10854;45.922;6.716;2023-01-15T09:23:37;7.50;99.90
21387;DHT22;10854;45.922;6.716;2023-01-15T09:26:06;7.50;99.90
21387;DHT22;10854;45.922;6.716;2023-01-15T09:28:35;7.60;99.90
21387;DHT22;10854;45.922;6.716;2023-01-15T09:31:03;7.60;99.90
21387;DHT22;10854;45.922;6.716;2023-01-15T09:33:32;7.70;99.90
21387;DHT22;10854;45.922;6.716;2023-01-15T09:36:00;7.80;99.90
21387;DHT22;10854;45.922;6.716;2023-01-15T09:38:28;7.80;99.90
21387;DHT22;10854;45.922;6.716;2023-01-15T09:41:06;7.90;99.90
21387;DHT22;10854;45.922;6.716;2023-01-15T09:47:01;7.90;99.90
21387;DHT22;10854;45.922;6.716;2023-01-15T09:55:20;7.90;99.90
21387;DHT22;10854;45.922;6.716;2023-01-15T09:57:59;7.90;99.90
21387;DHT22;10854;45.922;6.716;2023-01-15T10:00:34;7.90;99.90
21387;DHT22;10854;45.922;6.716;2023-01-15T10:03:04;7.90;99.90
21387;DHT22;10854;45.922;6.716;2023-01-15T10:05:41;8.00;99.90
21387;DHT22;10854;45.922;6.716;2023-01-15T10:10:55;8.00;99.90
21387;DHT22;10854;45.922;6.716;2023-01-15T10:13:38;8.00;99.90
21387;DHT22;10854;45.922;6.716;2023-01-15T10:16:09;8.00;99.90
21387;DHT22;10854;45.922;6.716;2023-01-15T10:18:39;8.00;99.90
21387;DHT22;10854;45.922;6.716;2023-01-15T10:21:16;8.00;99.90
21387;DHT22;10854;45.922;6.716;2023-01-15T10:45:56;6.60;99.90
21387;DHT22;10854;45.922;6.716;2023-01-15T10:51:32;6.30;99.90
21387;DHT22;10854;45.922;6.716;2023-01-15T10:57:09;6.00;99.90
21387;DHT22;10854;45.922;6.716;2023-01-15T10:59:49;5.80;99.90
21387;DHT22;10854;45.922;6.716;2023-01-15T11:04:56;5.70;99.90
21387;DHT22;10854;45.922;6.716;2023-01-15T11:07:40;5.60;99.90
21387;DHT22;10854;45.922;6.716;2023-01-15T11:10:29;5.50;99.90
21387;DHT22;10854;45.922;6.716;2023-01-15T11:13:23;5.50;99.90
21387;DHT22;10854;45.922;6.716;2023-01-15T11:16:19;5.50;99.90
21387;DHT22;10854;45.922;6.716;2023-01-15T11:19:29;5.40;99.90
21387;DHT22;10854;45.922;6.716;2023-01-15T11:22:15;5.40;99.90
21387;DHT22;10854;45.922;6.716;2023-01-15T11:24:59;5.30;99.90
21387;DHT22;10854;45.922;6.716;2023-01-15T11:27:30;5.30;99.90
21387;DHT22;10854;45.922;6.716;2023-01-15T11:30:02;5.30;99.90
21387;DHT22;10854;45.922;6.716;2023-01-15T11:32:33;5.30;99.90
21387;DHT22;10854;45.922;6.716;2023-01-15T11:35:14;5.30;99.90
21387;DHT22;10854;45.922;6.716;2023-01-15T11:37:43;5.40;99.90
21387;DHT22;10854;45.922;6.716;2023-01-15T11:40:16;5.40;99.90
21387;DHT22;10854;45.922;6.716;2023-01-15T11:42:49;5.40;99.90
21387;DHT22;10854;45.922;6.716;2023-01-15T11:45:50;5.40;99.90
21387;DHT22;10854;45.922;6.716;2023-01-15T11:48:46;5.40;99.90
21387;DHT22;10854;45.922;6.716;2023-01-15T11:51:42;5.30;99.90
21387;DHT22;10854;45.922;6.716;2023-01-15T11:54:14;5.40;99.90
21387;DHT22;10854;45.922;6.716;2023-01-15T11:56:44;5.30;99.90
21387;DHT22;10854;45.922;6.716;2023-01-15T11:59:16;5.30;99.90
21387;DHT22;10854;45.922;6.716;2023-01-15T12:01:50;5.30;99.90
21387;DHT22;10854;45.922;6.716;2023-01-15T12:07:13;5.30;99.90
21387;DHT22;10854;45.922;6.716;2023-01-15T12:16:26;5.20;99.90
21387;DHT22;10854;45.922;6.716;2023-01-15T12:19:22;5.20;99.90
21387;DHT22;10854;45.922;6.716;2023-01-15T12:21:59;5.20;99.90
21387;DHT22;10854;45.922;6.716;2023-01-15T12:24:48;5.20;99.90
21387;DHT22;10854;45.922;6.716;2023-01-15T12:30:13;5.10;99.90
21387;DHT22;10854;45.922;6.716;2023-01-15T12:32:51;5.10;99.90
21387;DHT22;10854;45.922;6.716;2023-01-15T12:35:29;5.00;99.90
21387;DHT22;10854;45.922;6.716;2023-01-15T12:38:33;5.00;99.90
21387;DHT22;10854;45.922;6.716;2023-01-15T12:41:13;4.90;99.90
21387;DHT22;10854;45.922;6.716;2023-01-15T12:43:46;4.80;99.90
21387;DHT22;10854;45.922;6.716;2023-01-15T12:46:39;4.70;99.90
21387;DHT22;10854;45.922;6.716;2023-01-15T12:49:31;4.50;99.90
21387;DHT22;10854;45.922;6.716;2023-01-15T12:52:09;4.40;99.90
21387;DHT22;10854;45.922;6.716;2023-01-15T12:55:05;4.30;99.90
21387;DHT22;10854;45.922;6.716;2023-01-15T12:57:39;4.20;99.90
21387;DHT22;10854;45.922;6.716;2023-01-15T13:00:18;4.10;99.90
21387;DHT22;10854;45.922;6.716;2023-01-15T13:03:08;4.00;99.90
21387;DHT22;10854;45.922;6.716;2023-01-15T13:10:57;3.80;99.90
21387;DHT22;10854;45.922;6.716;2023-01-15T13:13:39;3.70;99.90
21387;DHT22;10854;45.922;6.716;2023-01-15T13:16:21;3.60;99.90
21387;DHT22;10854;45.922;6.716;2023-01-15T13:19:01;3.60;99.90
21387;DHT22;10854;45.922;6.716;2023-01-15T13:21:35;3.60;99.90
21387;DHT22;10854;45.922;6.716;2023-01-15T13:27:11;3.60;99.90
21387;DHT22;10854;45.922;6.716;2023-01-15T13:30:17;3.60;99.90
21387;DHT22;10854;45.922;6.716;2023-01-15T13:32:50;3.60;99.90
21387;DHT22;10854;45.922;6.716;2023-01-15T13:35:35;3.60;99.90
21387;DHT22;10854;45.922;6.716;2023-01-15T13:38:05;3.60;99.90
21387;DHT22;10854;45.922;6.716;2023-01-15T13:40:45;3.60;99.90
21387;DHT22;10854;45.922;6.716;2023-01-15T13:46:02;3.50;99.90
21387;DHT22;10854;45.922;6.716;2023-01-15T13:48:48;3.40;99.90
21387;DHT22;10854;45.922;6.716;2023-01-15T13:51:29;3.40;99.90
21387;DHT22;10854;45.922;6.716;2023-01-15T13:54:00;3.40;99.90
21387;DHT22;10854;45.922;6.716;2023-01-15T13:56:31;3.40;99.90
21387;DHT22;10854;45.922;6.716;2023-01-15T13:59:03;3.40;99.90
21387;DHT22;10854;45.922;6.716;2023-01-15T14:01:35;3.40;99.90
21387;DHT22;10854;45.922;6.716;2023-01-15T14:06:47;3.10;99.90
21387;DHT22;10854;45.922;6.716;2023-01-15T14:12:24;3.00;99.90
21387;DHT22;10854;45.922;6.716;2023-01-15T14:14:59;2.90;99.90
21387;DHT22;10854;45.922;6.716;2023-01-15T14:23:25;3.00;99.90
21387;DHT22;10854;45.922;6.716;2023-01-15T14:29:09;3.00;99.90
21387;DHT22;10854;45.922;6.716;2023-01-15T14:34:24;3.00;99.90
21387;DHT22;10854;45.922;6.716;2023-01-15T14:36:59;3.00;99.90
21387;DHT22;10854;45.922;6.716;2023-01-15T14:40:01;3.00;99.90
21387;DHT22;10854;45.922;6.716;2023-01-15T14:42:36;3.00;99.90
21387;DHT22;10854;45.922;6.716;2023-01-15T14:51:27;3.00;99.90
21387;DHT22;10854;45.922;6.716;2023-01-15T14:54:06;3.10;99.90
21387;DHT22;10854;45.922;6.716;2023-01-15T14:56:51;3.10;99.90
21387;DHT22;10854;45.922;6.716;2023-01-15T15:02:05;3.00;99.90
21387;DHT22;10854;45.922;6.716;2023-01-15T15:07:17;3.00;99.90
21387;DHT22;10854;45.922;6.716;2023-01-15T15:12:44;3.00;99.90
21387;DHT22;10854;45.922;6.716;2023-01-15T15:26:27;3.00;99.90
21387;DHT22;10854;45.922;6.716;2023-01-15T15:31:25;3.10;99.90
21387;DHT22;10854;45.922;6.716;2023-01-15T15:33:56;3.10;99.90
21387;DHT22;10854;45.922;6.716;2023-01-15T15:36:30;3.10;99.90
21387;DHT22;10854;45.922;6.716;2023-01-15T15:39:02;3.10;99.90
21387;DHT22;10854;45.922;6.716;2023-01-15T15:41:35;3.20;99.90
21387;DHT22;10854;45.922;6.716;2023-01-15T15:44:35;3.20;99.90
21387;DHT22;10854;45.922;6.716;2023-01-15T15:47:25;3.20;99.90
21387;DHT22;10854;45.922;6.716;2023-01-15T15:50:33;3.20;99.90
21387;DHT22;10854;45.922;6.716;2023-01-15T15:53:02;3.20;99.90
21387;DHT22;10854;45.922;6.716;2023-01-15T15:55:39;3.20;99.90
21387;DHT22;10854;45.922;6.716;2023-01-15T15:58:25;3.30;99.90
21387;DHT22;10854;45.922;6.716;2023-01-15T16:00:55;3.30;99.90
21387;DHT22;10854;45.922;6.716;2023-01-15T16:03:26;3.40;99.90
21387;DHT22;10854;45.922;6.716;2023-01-15T16:06:00;3.40;99.90
21387;DHT22;10854;45.922;6.716;2023-01-15T16:08:30;3.40;99.90
21387;DHT22;10854;45.922;6.716;2023-01-15T16:11:07;3.30;99.90
21387;DHT22;10854;45.922;6.716;2023-01-15T16:13:45;3.20;99.90
21387;DHT22;10854;45.922;6.716;2023-01-15T16:16:15;3.10;99.90
21387;DHT22;10854;45.922;6.716;2023-01-15T16:18:47;3.00;99.90
21387;DHT22;10854;45.922;6.716;2023-01-15T16:21:21;2.90;99.90
21387;DHT22;10854;45.922;6.716;2023-01-15T16:23:58;2.80;99.90
21387;DHT22;10854;45.922;6.716;2023-01-15T16:26:36;2.60;99.90
21387;DHT22;10854;45.922;6.716;2023-01-15T16:29:16;2.50;99.90
21387;DHT22;10854;45.922;6.716;2023-01-15T16:31:46;2.40;99.90
21387;DHT22;10854;45.922;6.716;2023-01-15T16:34:20;2.30;99.90
21387;DHT22;10854;45.922;6.716;2023-01-15T16:36:50;2.10;99.90
21387;DHT22;10854;45.922;6.716;2023-01-15T16:42:36;1.90;99.90
21387;DHT22;10854;45.922;6.716;2023-01-15T16:45:19;1.70;99.90
21387;DHT22;10854;45.922;6.716;2023-01-15T16:48:31;1.60;99.90
21387;DHT22;10854;45.922;6.716;2023-01-15T16:51:29;1.40;99.90
21387;DHT22;10854;45.922;6.716;2023-01-15T16:54:02;1.30;99.90
21387;DHT22;10854;45.922;6.716;2023-01-15T16:59:15;1.10;99.90
21387;DHT22;10854;45.922;6.716;2023-01-15T17:01:46;1.10;99.90
21387;DHT22;10854;45.922;6.716;2023-01-15T17:04:36;1.00;99.90
21387;DHT22;10854;45.922;6.716;2023-01-15T17:09:53;0.80;99.90
21387;DHT22;10854;45.922;6.716;2023-01-15T17:17:48;0.70;99.90
21387;DHT22;10854;45.922;6.716;2023-01-15T17:20:19;0.60;99.90
21387;DHT22;10854;45.922;6.716;2023-01-15T17:22:48;0.60;99.90
21387;DHT22;10854;45.922;6.716;2023-01-15T17:25:27;0.60;99.90
21387;DHT22;10854;45.922;6.716;2023-01-15T17:28:00;0.50;99.90
21387;DHT22;10854;45.922;6.716;2023-01-15T17:30:29;0.50;99.90
21387;DHT22;10854;45.922;6.716;2023-01-15T17:33:03;0.50;99.90
21387;DHT22;10854;45.922;6.716;2023-01-15T17:35:34;0.40;99.90
21387;DHT22;10854;45.922;6.716;2023-01-15T17:38:04;0.40;99.90
21387;DHT22;10854;45.922;6.716;2023-01-15T17:40:34;0.30;99.90
21387;DHT22;10854;45.922;6.716;2023-01-15T17:43:04;0.30;99.90
21387;DHT22;10854;45.922;6.716;2023-01-15T17:45:33;0.20;99.90
21387;DHT22;10854;45.922;6.716;2023-01-15T17:48:01;0.30;99.90
21387;DHT22;10854;45.922;6.716;2023-01-15T17:50:32;0.30;99.90
21387;DHT22;10854;45.922;6.716;2023-01-15T17:53:01;0.20;99.90
21387;DHT22;10854;45.922;6.716;2023-01-15T17:55:29;0.20;99.90
21387;DHT22;10854;45.922;6.716;2023-01-15T17:58:16;0.20;99.90
21387;DHT22;10854;45.922;6.716;2023-01-15T18:01:11;0.20;99.90
21387;DHT22;10854;45.922;6.716;2023-01-15T18:03:59;0.20;99.90
21387;DHT22;10854;45.922;6.716;2023-01-15T18:06:52;0.20;99.90
21387;DHT22;10854;45.922;6.716;2023-01-15T18:09:22;0.30;99.90
21387;DHT22;10854;45.922;6.716;2023-01-15T18:11:51;0.30;99.90
21387;DHT22;10854;45.922;6.716;2023-01-15T18:14:19;0.30;99.90
21387;DHT22;10854;45.922;6.716;2023-01-15T18:16:48;0.20;99.90
21387;DHT22;10854;45.922;6.716;2023-01-15T18:19:16;0.20;99.90
21387;DHT22;10854;45.922;6.716;2023-01-15T18:21:45;0.10;99.90
21387;DHT22;10854;45.922;6.716;2023-01-15T18:24:13;0.20;99.90
21387;DHT22;10854;45.922;6.716;2023-01-15T18:26:42;0.20;99.90
21387;DHT22;10854;45.922;6.716;2023-01-15T18:29:12;0.20;99.90
21387;DHT22;10854;45.922;6.716;2023-01-15T18:31:41;0.20;99.90
21387;DHT22;10854;45.922;6.716;2023-01-15T18:34:10;0.20;99.90
21387;DHT22;10854;45.922;6.716;2023-01-15T18:36:38;0.20;99.90
21387;DHT22;10854;45.922;6.716;2023-01-15T18:39:08;0.20;99.90
21387;DHT22;10854;45.922;6.716;2023-01-15T18:41:40;0.20;99.90
21387;DHT22;10854;45.922;6.716;2023-01-15T18:44:14;0.30;99.90
21387;DHT22;10854;45.922;6.716;2023-01-15T18:47:04;0.30;99.90
21387;DHT22;10854;45.922;6.716;2023-01-15T18:49:35;0.30;99.90
21387;DHT22;10854;45.922;6.716;2023-01-15T18:52:04;0.30;99.90
21387;DHT22;10854;45.922;6.716;2023-01-15T18:54:51;0.20;99.90
21387;DHT22;10854;45.922;6.716;2023-01-15T18:57:20;0.20;99.90